sensor_id;sensor_type;location;lat;lon;timestamp;P1;durP1;ratioP1;P2;durP2;ratioP2
42110;SDS011;27766;52.174;5.456;2022-11-18T00:01:14;5.55;;;2.78;;
42110;SDS011;27766;52.174;5.456;2022-11-18T00:03:43;3.65;;;2.50;;
42110;SDS011;27766;52.174;5.456;2022-11-18T00:06:15;5.43;;;2.95;;
42110;SDS011;27766;52.174;5.456;2022-11-18T00:08:47;3.35;;;2.55;;
42110;SDS011;27766;52.174;5.456;2022-11-18T00:11:15;9.77;;;3.65;;
42110;SDS011;27766;52.174;5.456;2022-11-18T00:14:03;4.65;;;2.42;;
42110;SDS011;27766;52.174;5.456;2022-11-18T00:16:55;5.88;;;2.92;;
42110;SDS011;27766;52.174;5.456;2022-11-18T00:19:41;7.97;;;3.38;;
42110;SDS011;27766;52.174;5.456;2022-11-18T00:22:10;5.35;;;3.25;;
42110;SDS011;27766;52.174;5.456;2022-11-18T00:24:38;3.20;;;2.70;;
42110;SDS011;27766;52.174;5.456;2022-11-18T00:27:05;8.98;;;3.47;;
42110;SDS011;27766;52.174;5.456;2022-11-18T00:29:32;8.27;;;3.15;;
42110;SDS011;27766;52.174;5.456;2022-11-18T00:31:59;3.92;;;2.72;;
42110;SDS011;27766;52.174;5.456;2022-11-18T00:34:26;5.53;;;3.05;;
42110;SDS011;27766;52.174;5.456;2022-11-18T00:36:54;5.15;;;2.85;;
42110;SDS011;27766;52.174;5.456;2022-11-18T00:39:21;4.10;;;3.00;;
42110;SDS011;27766;52.174;5.456;2022-11-18T00:41:48;6.25;;;3.13;;
42110;SDS011;27766;52.174;5.456;2022-11-18T00:44:34;4.22;;;2.78;;
42110;SDS011;27766;52.174;5.456;2022-11-18T00:47:02;4.68;;;2.80;;
42110;SDS011;27766;52.174;5.456;2022-11-18T00:49:30;4.50;;;2.33;;
42110;SDS011;27766;52.174;5.456;2022-11-18T00:51:57;4.30;;;2.67;;
42110;SDS011;27766;52.174;5.456;2022-11-18T00:54:24;3.45;;;2.63;;
42110;SDS011;27766;52.174;5.456;2022-11-18T00:56:51;5.95;;;2.50;;
42110;SDS011;27766;52.174;5.456;2022-11-18T00:59:18;3.47;;;2.30;;
42110;SDS011;27766;52.174;5.456;2022-11-18T01:01:46;5.35;;;2.55;;
42110;SDS011;27766;52.174;5.456;2022-11-18T01:04:14;4.07;;;2.53;;
42110;SDS011;27766;52.174;5.456;2022-11-18T01:06:42;5.43;;;2.28;;
42110;SDS011;27766;52.174;5.456;2022-11-18T01:09:09;11.63;;;2.97;;
42110;SDS011;27766;52.174;5.456;2022-11-18T01:11:36;5.95;;;3.03;;
42110;SDS011;27766;52.174;5.456;2022-11-18T01:14:24;4.75;;;2.60;;
42110;SDS011;27766;52.174;5.456;2022-11-18T01:16:53;8.55;;;2.50;;
42110;SDS011;27766;52.174;5.456;2022-11-18T01:19:20;5.43;;;2.47;;
42110;SDS011;27766;52.174;5.456;2022-11-18T01:21:48;7.05;;;2.70;;
42110;SDS011;27766;52.174;5.456;2022-11-18T01:24:15;4.55;;;2.47;;
42110;SDS011;27766;52.174;5.456;2022-11-18T01:26:43;7.75;;;3.03;;
42110;SDS011;27766;52.174;5.456;2022-11-18T01:29:10;4.40;;;2.83;;
42110;SDS011;27766;52.174;5.456;2022-11-18T01:31:37;5.40;;;2.25;;
42110;SDS011;27766;52.174;5.456;2022-11-18T01:34:26;6.30;;;2.47;;
42110;SDS011;27766;52.174;5.456;2022-11-18T01:36:54;2.70;;;2.28;;
42110;SDS011;27766;52.174;5.456;2022-11-18T01:39:23;6.18;;;2.75;;
42110;SDS011;27766;52.174;5.456;2022-11-18T01:41:50;4.75;;;2.75;;
42110;SDS011;27766;52.174;5.456;2022-11-18T01:47:27;4.53;;;2.75;;
42110;SDS011;27766;52.174;5.456;2022-11-18T01:49:58;3.40;;;2.35;;
42110;SDS011;27766;52.174;5.456;2022-11-18T01:52:26;4.50;;;3.00;;
42110;SDS011;27766;52.174;5.456;2022-11-18T01:54:56;10.05;;;2.97;;
42110;SDS011;27766;52.174;5.456;2022-11-18T01:57:29;4.28;;;2.85;;
42110;SDS011;27766;52.174;5.456;2022-11-18T01:59:59;6.28;;;2.50;;
42110;SDS011;27766;52.174;5.456;2022-11-18T02:02:29;4.65;;;3.17;;
42110;SDS011;27766;52.174;5.456;2022-11-18T02:04:59;4.47;;;2.90;;
42110;SDS011;27766;52.174;5.456;2022-11-18T02:07:28;4.70;;;3.10;;
42110;SDS011;27766;52.174;5.456;2022-11-18T02:09:55;7.05;;;2.72;;
42110;SDS011;27766;52.174;5.456;2022-11-18T02:12:25;3.42;;;2.90;;
42110;SDS011;27766;52.174;5.456;2022-11-18T02:14:52;7.10;;;2.65;;
42110;SDS011;27766;52.174;5.456;2022-11-18T02:28:18;6.07;;;2.85;;
42110;SDS011;27766;52.174;5.456;2022-11-18T02:31:13;6.90;;;3.08;;
42110;SDS011;27766;52.174;5.456;2022-11-18T02:33:58;6.22;;;3.00;;
42110;SDS011;27766;52.174;5.456;2022-11-18T02:36:53;6.50;;;3.55;;
42110;SDS011;27766;52.174;5.456;2022-11-18T02:39:43;5.93;;;3.05;;
42110;SDS011;27766;52.174;5.456;2022-11-18T02:42:17;5.07;;;3.55;;
42110;SDS011;27766;52.174;5.456;2022-11-18T02:44:46;7.28;;;2.95;;
42110;SDS011;27766;52.174;5.456;2022-11-18T02:47:18;12.30;;;3.45;;
42110;SDS011;27766;52.174;5.456;2022-11-18T02:49:48;5.38;;;3.28;;
42110;SDS011;27766;52.174;5.456;2022-11-18T02:52:19;6.30;;;3.28;;
42110;SDS011;27766;52.174;5.456;2022-11-18T02:54:48;7.68;;;3.50;;
42110;SDS011;27766;52.174;5.456;2022-11-18T02:57:18;7.57;;;3.33;;
42110;SDS011;27766;52.174;5.456;2022-11-18T02:59:46;8.65;;;2.90;;
42110;SDS011;27766;52.174;5.456;2022-11-18T03:02:14;6.35;;;3.63;;
42110;SDS011;27766;52.174;5.456;2022-11-18T03:04:46;9.15;;;3.60;;
42110;SDS011;27766;52.174;5.456;2022-11-18T03:07:26;3.92;;;3.15;;
42110;SDS011;27766;52.174;5.456;2022-11-18T03:10:00;5.70;;;3.08;;
42110;SDS011;27766;52.174;5.456;2022-11-18T03:12:42;6.60;;;3.30;;
42110;SDS011;27766;52.174;5.456;2022-11-18T03:15:22;4.40;;;3.35;;
42110;SDS011;27766;52.174;5.456;2022-11-18T03:20:35;5.00;;;3.47;;
42110;SDS011;27766;52.174;5.456;2022-11-18T03:25:39;4.30;;;3.13;;
42110;SDS011;27766;52.174;5.456;2022-11-18T03:30:52;9.20;;;3.85;;
42110;SDS011;27766;52.174;5.456;2022-11-18T03:33:27;4.10;;;3.17;;
42110;SDS011;27766;52.174;5.456;2022-11-18T03:36:02;6.93;;;3.97;;
42110;SDS011;27766;52.174;5.456;2022-11-18T03:38:34;6.13;;;3.45;;
42110;SDS011;27766;52.174;5.456;2022-11-18T03:41:06;4.53;;;3.50;;
42110;SDS011;27766;52.174;5.456;2022-11-18T03:43:37;5.68;;;4.13;;
42110;SDS011;27766;52.174;5.456;2022-11-18T03:48:42;5.35;;;3.67;;
42110;SDS011;27766;52.174;5.456;2022-11-18T03:51:16;8.48;;;3.50;;
42110;SDS011;27766;52.174;5.456;2022-11-18T03:56:24;10.88;;;4.00;;
42110;SDS011;27766;52.174;5.456;2022-11-18T03:58:58;7.68;;;3.40;;
42110;SDS011;27766;52.174;5.456;2022-11-18T04:04:27;5.78;;;3.92;;
42110;SDS011;27766;52.174;5.456;2022-11-18T04:07:02;6.35;;;4.05;;
42110;SDS011;27766;52.174;5.456;2022-11-18T04:09:33;5.68;;;3.28;;
42110;SDS011;27766;52.174;5.456;2022-11-18T04:12:08;10.10;;;4.10;;
42110;SDS011;27766;52.174;5.456;2022-11-18T04:14:40;5.63;;;3.97;;
42110;SDS011;27766;52.174;5.456;2022-11-18T04:17:10;6.13;;;3.90;;
42110;SDS011;27766;52.174;5.456;2022-11-18T04:19:42;5.03;;;3.67;;
42110;SDS011;27766;52.174;5.456;2022-11-18T04:22:10;7.13;;;3.10;;
42110;SDS011;27766;52.174;5.456;2022-11-18T04:24:38;5.32;;;3.90;;
42110;SDS011;27766;52.174;5.456;2022-11-18T04:27:05;7.00;;;3.97;;
42110;SDS011;27766;52.174;5.456;2022-11-18T04:29:33;6.35;;;3.75;;
42110;SDS011;27766;52.174;5.456;2022-11-18T04:32:00;4.80;;;3.95;;
42110;SDS011;27766;52.174;5.456;2022-11-18T04:34:28;6.68;;;3.72;;
42110;SDS011;27766;52.174;5.456;2022-11-18T04:36:56;5.78;;;3.70;;
42110;SDS011;27766;52.174;5.456;2022-11-18T04:39:24;6.38;;;4.28;;
42110;SDS011;27766;52.174;5.456;2022-11-18T04:41:51;6.78;;;3.83;;
42110;SDS011;27766;52.174;5.456;2022-11-18T04:44:25;6.60;;;4.20;;
42110;SDS011;27766;52.174;5.456;2022-11-18T04:46:52;8.55;;;4.32;;
42110;SDS011;27766;52.174;5.456;2022-11-18T04:49:21;9.38;;;4.10;;
42110;SDS011;27766;52.174;5.456;2022-11-18T04:51:48;6.22;;;3.90;;
42110;SDS011;27766;52.174;5.456;2022-11-18T04:54:17;6.78;;;4.53;;
42110;SDS011;27766;52.174;5.456;2022-11-18T04:56:45;12.48;;;4.40;;
42110;SDS011;27766;52.174;5.456;2022-11-18T04:59:16;4.95;;;3.40;;
42110;SDS011;27766;52.174;5.456;2022-11-18T05:01:47;6.90;;;4.30;;
42110;SDS011;27766;52.174;5.456;2022-11-18T05:04:17;6.22;;;3.83;;
42110;SDS011;27766;52.174;5.456;2022-11-18T05:06:46;6.80;;;4.43;;
42110;SDS011;27766;52.174;5.456;2022-11-18T05:09:14;8.82;;;4.22;;
42110;SDS011;27766;52.174;5.456;2022-11-18T05:11:42;5.47;;;3.47;;
42110;SDS011;27766;52.174;5.456;2022-11-18T05:14:43;10.05;;;4.57;;
42110;SDS011;27766;52.174;5.456;2022-11-18T05:17:15;5.63;;;3.45;;
42110;SDS011;27766;52.174;5.456;2022-11-18T05:19:44;6.50;;;4.30;;
42110;SDS011;27766;52.174;5.456;2022-11-18T05:22:11;5.97;;;3.90;;
42110;SDS011;27766;52.174;5.456;2022-11-18T05:24:38;7.50;;;4.32;;
42110;SDS011;27766;52.174;5.456;2022-11-18T05:27:05;8.45;;;3.72;;
42110;SDS011;27766;52.174;5.456;2022-11-18T05:29:32;6.95;;;4.10;;
42110;SDS011;27766;52.174;5.456;2022-11-18T05:31:59;5.55;;;3.97;;
42110;SDS011;27766;52.174;5.456;2022-11-18T05:34:26;4.85;;;3.78;;
42110;SDS011;27766;52.174;5.456;2022-11-18T05:36:53;9.75;;;4.45;;
42110;SDS011;27766;52.174;5.456;2022-11-18T05:39:20;6.70;;;3.88;;
42110;SDS011;27766;52.174;5.456;2022-11-18T05:41:47;6.82;;;4.20;;
42110;SDS011;27766;52.174;5.456;2022-11-18T05:44:33;6.53;;;4.35;;
42110;SDS011;27766;52.174;5.456;2022-11-18T05:47:00;5.22;;;3.60;;
42110;SDS011;27766;52.174;5.456;2022-11-18T05:49:27;7.63;;;4.45;;
42110;SDS011;27766;52.174;5.456;2022-11-18T05:51:54;6.50;;;4.05;;
42110;SDS011;27766;52.174;5.456;2022-11-18T05:54:21;5.80;;;4.15;;
42110;SDS011;27766;52.174;5.456;2022-11-18T05:56:48;6.63;;;4.32;;
42110;SDS011;27766;52.174;5.456;2022-11-18T05:59:16;5.15;;;3.60;;
42110;SDS011;27766;52.174;5.456;2022-11-18T06:04:19;7.93;;;4.20;;
42110;SDS011;27766;52.174;5.456;2022-11-18T06:06:52;7.30;;;4.60;;
42110;SDS011;27766;52.174;5.456;2022-11-18T06:09:25;7.00;;;4.03;;
42110;SDS011;27766;52.174;5.456;2022-11-18T06:11:58;6.18;;;4.07;;
42110;SDS011;27766;52.174;5.456;2022-11-18T06:14:32;7.60;;;4.53;;
42110;SDS011;27766;52.174;5.456;2022-11-18T06:17:05;4.70;;;3.80;;
42110;SDS011;27766;52.174;5.456;2022-11-18T06:19:37;7.35;;;3.65;;
42110;SDS011;27766;52.174;5.456;2022-11-18T06:22:05;7.75;;;3.95;;
42110;SDS011;27766;52.174;5.456;2022-11-18T06:24:33;8.23;;;4.45;;
42110;SDS011;27766;52.174;5.456;2022-11-18T06:27:00;7.60;;;4.03;;
42110;SDS011;27766;52.174;5.456;2022-11-18T06:29:28;6.68;;;3.80;;
42110;SDS011;27766;52.174;5.456;2022-11-18T06:31:56;8.93;;;4.63;;
42110;SDS011;27766;52.174;5.456;2022-11-18T06:34:23;6.30;;;3.67;;
42110;SDS011;27766;52.174;5.456;2022-11-18T06:36:50;6.97;;;4.22;;
42110;SDS011;27766;52.174;5.456;2022-11-18T06:39:18;10.20;;;4.55;;
42110;SDS011;27766;52.174;5.456;2022-11-18T06:41:45;8.45;;;4.43;;
42110;SDS011;27766;52.174;5.456;2022-11-18T06:44:13;14.45;;;3.85;;
42110;SDS011;27766;52.174;5.456;2022-11-18T06:46:40;6.35;;;4.00;;
42110;SDS011;27766;52.174;5.456;2022-11-18T06:49:23;7.97;;;4.30;;
42110;SDS011;27766;52.174;5.456;2022-11-18T06:51:51;7.40;;;3.67;;
42110;SDS011;27766;52.174;5.456;2022-11-18T06:54:18;7.85;;;4.63;;
42110;SDS011;27766;52.174;5.456;2022-11-18T06:56:45;7.80;;;4.72;;
42110;SDS011;27766;52.174;5.456;2022-11-18T06:59:13;5.80;;;4.35;;
42110;SDS011;27766;52.174;5.456;2022-11-18T07:01:41;7.05;;;4.15;;
42110;SDS011;27766;52.174;5.456;2022-11-18T07:04:08;7.47;;;4.20;;
42110;SDS011;27766;52.174;5.456;2022-11-18T07:06:35;7.78;;;4.88;;
42110;SDS011;27766;52.174;5.456;2022-11-18T07:09:04;6.78;;;4.43;;
42110;SDS011;27766;52.174;5.456;2022-11-18T07:11:32;10.52;;;4.55;;
42110;SDS011;27766;52.174;5.456;2022-11-18T07:14:00;7.50;;;4.40;;
42110;SDS011;27766;52.174;5.456;2022-11-18T07:16:27;7.13;;;4.05;;
42110;SDS011;27766;52.174;5.456;2022-11-18T07:18:55;6.22;;;4.10;;
42110;SDS011;27766;52.174;5.456;2022-11-18T07:21:25;9.77;;;4.72;;
42110;SDS011;27766;52.174;5.456;2022-11-18T07:23:54;8.27;;;4.53;;
42110;SDS011;27766;52.174;5.456;2022-11-18T07:26:22;8.13;;;3.80;;
42110;SDS011;27766;52.174;5.456;2022-11-18T07:28:49;6.07;;;4.47;;
42110;SDS011;27766;52.174;5.456;2022-11-18T07:31:18;6.80;;;4.35;;
42110;SDS011;27766;52.174;5.456;2022-11-18T07:33:46;6.35;;;4.65;;
42110;SDS011;27766;52.174;5.456;2022-11-18T07:36:21;7.13;;;3.92;;
42110;SDS011;27766;52.174;5.456;2022-11-18T07:38:49;6.07;;;3.90;;
42110;SDS011;27766;52.174;5.456;2022-11-18T07:41:18;7.82;;;4.13;;
42110;SDS011;27766;52.174;5.456;2022-11-18T07:43:48;6.45;;;4.70;;
42110;SDS011;27766;52.174;5.456;2022-11-18T07:46:21;6.40;;;4.07;;
42110;SDS011;27766;52.174;5.456;2022-11-18T07:48:56;6.88;;;4.55;;
42110;SDS011;27766;52.174;5.456;2022-11-18T07:51:26;6.95;;;4.07;;
42110;SDS011;27766;52.174;5.456;2022-11-18T07:53:57;5.40;;;3.78;;
42110;SDS011;27766;52.174;5.456;2022-11-18T07:56:24;6.05;;;4.55;;
42110;SDS011;27766;52.174;5.456;2022-11-18T07:58:52;7.55;;;5.60;;
42110;SDS011;27766;52.174;5.456;2022-11-18T08:01:21;6.95;;;4.40;;
42110;SDS011;27766;52.174;5.456;2022-11-18T08:03:50;6.55;;;4.65;;
42110;SDS011;27766;52.174;5.456;2022-11-18T08:06:18;8.75;;;4.57;;
42110;SDS011;27766;52.174;5.456;2022-11-18T08:08:46;7.85;;;4.03;;
42110;SDS011;27766;52.174;5.456;2022-11-18T08:11:16;7.72;;;5.43;;
42110;SDS011;27766;52.174;5.456;2022-11-18T08:13:49;5.13;;;4.55;;
42110;SDS011;27766;52.174;5.456;2022-11-18T08:16:19;9.77;;;5.30;;
42110;SDS011;27766;52.174;5.456;2022-11-18T08:18:48;7.95;;;5.03;;
42110;SDS011;27766;52.174;5.456;2022-11-18T08:21:16;9.48;;;6.10;;
42110;SDS011;27766;52.174;5.456;2022-11-18T08:23:49;10.02;;;5.00;;
42110;SDS011;27766;52.174;5.456;2022-11-18T08:26:20;21.95;;;4.82;;
42110;SDS011;27766;52.174;5.456;2022-11-18T08:28:48;8.70;;;4.72;;
42110;SDS011;27766;52.174;5.456;2022-11-18T08:31:17;8.88;;;4.63;;
42110;SDS011;27766;52.174;5.456;2022-11-18T08:33:47;5.95;;;4.57;;
42110;SDS011;27766;52.174;5.456;2022-11-18T08:36:16;10.07;;;5.40;;
42110;SDS011;27766;52.174;5.456;2022-11-18T08:38:47;6.72;;;4.47;;
42110;SDS011;27766;52.174;5.456;2022-11-18T08:41:17;7.25;;;5.25;;
42110;SDS011;27766;52.174;5.456;2022-11-18T08:46:15;10.13;;;4.13;;
42110;SDS011;27766;52.174;5.456;2022-11-18T08:48:43;10.45;;;4.35;;
42110;SDS011;27766;52.174;5.456;2022-11-18T08:51:10;7.10;;;4.70;;
42110;SDS011;27766;52.174;5.456;2022-11-18T08:53:39;7.40;;;4.45;;
42110;SDS011;27766;52.174;5.456;2022-11-18T08:56:06;7.75;;;4.35;;
42110;SDS011;27766;52.174;5.456;2022-11-18T08:58:38;12.00;;;5.13;;
42110;SDS011;27766;52.174;5.456;2022-11-18T09:01:05;6.18;;;3.95;;
42110;SDS011;27766;52.174;5.456;2022-11-18T09:03:34;10.60;;;4.43;;
42110;SDS011;27766;52.174;5.456;2022-11-18T09:06:05;7.97;;;5.28;;
42110;SDS011;27766;52.174;5.456;2022-11-18T09:08:36;5.53;;;4.15;;
42110;SDS011;27766;52.174;5.456;2022-11-18T09:11:11;6.72;;;4.60;;
42110;SDS011;27766;52.174;5.456;2022-11-18T09:13:40;5.05;;;4.05;;
42110;SDS011;27766;52.174;5.456;2022-11-18T09:16:28;11.40;;;4.28;;
42110;SDS011;27766;52.174;5.456;2022-11-18T09:18:57;5.47;;;4.38;;
42110;SDS011;27766;52.174;5.456;2022-11-18T09:21:44;5.78;;;4.00;;
42110;SDS011;27766;52.174;5.456;2022-11-18T09:24:11;12.55;;;4.78;;
42110;SDS011;27766;52.174;5.456;2022-11-18T09:26:38;10.00;;;4.55;;
42110;SDS011;27766;52.174;5.456;2022-11-18T09:29:05;11.35;;;4.53;;
42110;SDS011;27766;52.174;5.456;2022-11-18T09:31:32;7.38;;;4.60;;
42110;SDS011;27766;52.174;5.456;2022-11-18T09:33:59;6.43;;;4.35;;
42110;SDS011;27766;52.174;5.456;2022-11-18T09:36:27;8.10;;;4.13;;
42110;SDS011;27766;52.174;5.456;2022-11-18T09:38:54;6.20;;;3.90;;
42110;SDS011;27766;52.174;5.456;2022-11-18T09:47:03;7.72;;;4.57;;
42110;SDS011;27766;52.174;5.456;2022-11-18T09:49:44;11.95;;;5.28;;
42110;SDS011;27766;52.174;5.456;2022-11-18T09:52:15;7.82;;;4.47;;
42110;SDS011;27766;52.174;5.456;2022-11-18T09:54:49;7.32;;;4.30;;
42110;SDS011;27766;52.174;5.456;2022-11-18T09:57:22;10.35;;;4.72;;
42110;SDS011;27766;52.174;5.456;2022-11-18T09:59:51;8.38;;;4.72;;
42110;SDS011;27766;52.174;5.456;2022-11-18T10:02:24;7.25;;;4.47;;
42110;SDS011;27766;52.174;5.456;2022-11-18T10:04:55;4.97;;;4.10;;
42110;SDS011;27766;52.174;5.456;2022-11-18T10:07:39;13.90;;;5.05;;
42110;SDS011;27766;52.174;5.456;2022-11-18T10:10:15;4.53;;;3.95;;
42110;SDS011;27766;52.174;5.456;2022-11-18T10:12:53;7.15;;;4.10;;
42110;SDS011;27766;52.174;5.456;2022-11-18T10:15:42;7.75;;;3.80;;
42110;SDS011;27766;52.174;5.456;2022-11-18T10:18:38;7.20;;;4.68;;
42110;SDS011;27766;52.174;5.456;2022-11-18T10:21:38;5.10;;;3.78;;
42110;SDS011;27766;52.174;5.456;2022-11-18T10:24:09;7.10;;;3.92;;
42110;SDS011;27766;52.174;5.456;2022-11-18T10:26:43;7.82;;;4.20;;
42110;SDS011;27766;52.174;5.456;2022-11-18T10:29:10;11.68;;;3.88;;
42110;SDS011;27766;52.174;5.456;2022-11-18T10:31:38;5.43;;;3.70;;
42110;SDS011;27766;52.174;5.456;2022-11-18T10:34:18;4.05;;;3.22;;
42110;SDS011;27766;52.174;5.456;2022-11-18T10:36:57;7.72;;;3.50;;
42110;SDS011;27766;52.174;5.456;2022-11-18T10:39:25;9.82;;;3.22;;
42110;SDS011;27766;52.174;5.456;2022-11-18T10:41:55;6.60;;;3.70;;
42110;SDS011;27766;52.174;5.456;2022-11-18T10:44:27;5.72;;;3.60;;
42110;SDS011;27766;52.174;5.456;2022-11-18T10:47:18;6.15;;;3.70;;
42110;SDS011;27766;52.174;5.456;2022-11-18T10:49:54;4.07;;;3.22;;
42110;SDS011;27766;52.174;5.456;2022-11-18T10:52:23;5.95;;;3.30;;
42110;SDS011;27766;52.174;5.456;2022-11-18T10:55:17;7.53;;;3.45;;
42110;SDS011;27766;52.174;5.456;2022-11-18T10:57:49;5.60;;;3.22;;
42110;SDS011;27766;52.174;5.456;2022-11-18T11:00:37;4.82;;;3.17;;
42110;SDS011;27766;52.174;5.456;2022-11-18T11:05:47;5.45;;;3.45;;
42110;SDS011;27766;52.174;5.456;2022-11-18T11:08:35;5.30;;;3.13;;
42110;SDS011;27766;52.174;5.456;2022-11-18T11:11:22;6.57;;;3.75;;
42110;SDS011;27766;52.174;5.456;2022-11-18T11:14:05;4.55;;;3.35;;
42110;SDS011;27766;52.174;5.456;2022-11-18T11:16:47;4.32;;;3.28;;
42110;SDS011;27766;52.174;5.456;2022-11-18T11:19:40;10.93;;;3.47;;
42110;SDS011;27766;52.174;5.456;2022-11-18T11:22:15;5.95;;;3.60;;
42110;SDS011;27766;52.174;5.456;2022-11-18T11:24:44;11.60;;;3.47;;
42110;SDS011;27766;52.174;5.456;2022-11-18T11:33:06;6.57;;;3.28;;
42110;SDS011;27766;52.174;5.456;2022-11-18T11:35:45;5.05;;;3.65;;
42110;SDS011;27766;52.174;5.456;2022-11-18T11:41:04;6.50;;;3.70;;
42110;SDS011;27766;52.174;5.456;2022-11-18T11:46:37;3.40;;;2.70;;
42110;SDS011;27766;52.174;5.456;2022-11-18T11:49:47;5.75;;;3.65;;
42110;SDS011;27766;52.174;5.456;2022-11-18T11:52:16;6.63;;;3.70;;
42110;SDS011;27766;52.174;5.456;2022-11-18T12:00:37;6.97;;;3.75;;
42110;SDS011;27766;52.174;5.456;2022-11-18T12:03:17;6.30;;;3.88;;
42110;SDS011;27766;52.174;5.456;2022-11-18T12:06:06;8.45;;;3.35;;
42110;SDS011;27766;52.174;5.456;2022-11-18T12:08:35;5.82;;;3.80;;
42110;SDS011;27766;52.174;5.456;2022-11-18T12:11:07;10.68;;;4.32;;
42110;SDS011;27766;52.174;5.456;2022-11-18T12:16:35;9.13;;;3.85;;
42110;SDS011;27766;52.174;5.456;2022-11-18T12:19:15;6.03;;;3.63;;
42110;SDS011;27766;52.174;5.456;2022-11-18T12:29:54;11.48;;;4.82;;
42110;SDS011;27766;52.174;5.456;2022-11-18T12:32:29;5.85;;;3.65;;
42110;SDS011;27766;52.174;5.456;2022-11-18T12:37:46;6.95;;;4.32;;
42110;SDS011;27766;52.174;5.456;2022-11-18T12:40:41;7.43;;;4.40;;
42110;SDS011;27766;52.174;5.456;2022-11-18T12:51:53;5.13;;;3.92;;
42110;SDS011;27766;52.174;5.456;2022-11-18T12:54:25;7.13;;;4.40;;
42110;SDS011;27766;52.174;5.456;2022-11-18T12:56:57;5.70;;;3.92;;
42110;SDS011;27766;52.174;5.456;2022-11-18T12:59:34;5.80;;;3.97;;
42110;SDS011;27766;52.174;5.456;2022-11-18T13:02:04;4.93;;;3.63;;
42110;SDS011;27766;52.174;5.456;2022-11-18T13:04:37;10.05;;;4.10;;
42110;SDS011;27766;52.174;5.456;2022-11-18T13:07:13;6.53;;;3.92;;
42110;SDS011;27766;52.174;5.456;2022-11-18T13:09:59;9.10;;;4.63;;
42110;SDS011;27766;52.174;5.456;2022-11-18T13:12:37;8.45;;;4.78;;
42110;SDS011;27766;52.174;5.456;2022-11-18T13:15:06;6.88;;;4.05;;
42110;SDS011;27766;52.174;5.456;2022-11-18T13:20:54;6.35;;;4.07;;
42110;SDS011;27766;52.174;5.456;2022-11-18T13:23:25;5.38;;;3.63;;
42110;SDS011;27766;52.174;5.456;2022-11-18T13:26:30;10.80;;;4.88;;
42110;SDS011;27766;52.174;5.456;2022-11-18T13:34:39;9.38;;;4.93;;
42110;SDS011;27766;52.174;5.456;2022-11-18T13:37:15;9.70;;;4.80;;
42110;SDS011;27766;52.174;5.456;2022-11-18T13:39:48;10.57;;;4.47;;
42110;SDS011;27766;52.174;5.456;2022-11-18T13:42:23;5.93;;;4.82;;
42110;SDS011;27766;52.174;5.456;2022-11-18T13:45:00;9.02;;;4.93;;
42110;SDS011;27766;52.174;5.456;2022-11-18T13:47:36;8.63;;;5.50;;
42110;SDS011;27766;52.174;5.456;2022-11-18T13:52:41;8.45;;;5.47;;
42110;SDS011;27766;52.174;5.456;2022-11-18T13:55:29;6.97;;;4.97;;
42110;SDS011;27766;52.174;5.456;2022-11-18T13:58:01;10.27;;;5.97;;
42110;SDS011;27766;52.174;5.456;2022-11-18T14:00:28;6.95;;;5.30;;
42110;SDS011;27766;52.174;5.456;2022-11-18T14:02:59;7.20;;;6.15;;
42110;SDS011;27766;52.174;5.456;2022-11-18T14:05:33;9.25;;;6.85;;
42110;SDS011;27766;52.174;5.456;2022-11-18T14:08:02;9.05;;;6.22;;
42110;SDS011;27766;52.174;5.456;2022-11-18T14:10:41;6.13;;;5.53;;
42110;SDS011;27766;52.174;5.456;2022-11-18T14:13:22;9.80;;;5.05;;
42110;SDS011;27766;52.174;5.456;2022-11-18T14:15:58;11.30;;;5.63;;
42110;SDS011;27766;52.174;5.456;2022-11-18T14:18:31;6.53;;;5.25;;
42110;SDS011;27766;52.174;5.456;2022-11-18T14:21:00;6.97;;;5.30;;
42110;SDS011;27766;52.174;5.456;2022-11-18T14:23:33;8.68;;;5.72;;
42110;SDS011;27766;52.174;5.456;2022-11-18T14:26:03;10.02;;;5.85;;
42110;SDS011;27766;52.174;5.456;2022-11-18T14:28:35;8.20;;;6.15;;
42110;SDS011;27766;52.174;5.456;2022-11-18T14:33:31;7.22;;;5.82;;
42110;SDS011;27766;52.174;5.456;2022-11-18T14:36:12;9.20;;;5.72;;
42110;SDS011;27766;52.174;5.456;2022-11-18T14:38:44;15.50;;;5.90;;
42110;SDS011;27766;52.174;5.456;2022-11-18T14:41:35;7.07;;;5.25;;
42110;SDS011;27766;52.174;5.456;2022-11-18T14:44:15;10.25;;;6.25;;
42110;SDS011;27766;52.174;5.456;2022-11-18T14:46:46;8.30;;;6.13;;
42110;SDS011;27766;52.174;5.456;2022-11-18T14:51:49;14.25;;;8.35;;
42110;SDS011;27766;52.174;5.456;2022-11-18T14:54:18;16.98;;;9.98;;
42110;SDS011;27766;52.174;5.456;2022-11-18T14:56:53;13.30;;;7.68;;
42110;SDS011;27766;52.174;5.456;2022-11-18T14:59:22;16.42;;;7.05;;
42110;SDS011;27766;52.174;5.456;2022-11-18T15:01:50;7.63;;;6.30;;
42110;SDS011;27766;52.174;5.456;2022-11-18T15:04:18;11.40;;;6.97;;
42110;SDS011;27766;52.174;5.456;2022-11-18T15:06:48;10.95;;;7.15;;
42110;SDS011;27766;52.174;5.456;2022-11-18T15:09:15;11.20;;;8.38;;
42110;SDS011;27766;52.174;5.456;2022-11-18T15:11:44;15.35;;;9.93;;
42110;SDS011;27766;52.174;5.456;2022-11-18T15:14:11;18.10;;;10.05;;
42110;SDS011;27766;52.174;5.456;2022-11-18T15:16:38;10.82;;;8.73;;
42110;SDS011;27766;52.174;5.456;2022-11-18T15:19:08;10.30;;;7.57;;
42110;SDS011;27766;52.174;5.456;2022-11-18T15:21:39;13.90;;;9.98;;
42110;SDS011;27766;52.174;5.456;2022-11-18T15:24:06;19.88;;;12.73;;
42110;SDS011;27766;52.174;5.456;2022-11-18T15:26:34;14.45;;;12.35;;
42110;SDS011;27766;52.174;5.456;2022-11-18T15:29:04;19.77;;;12.98;;
42110;SDS011;27766;52.174;5.456;2022-11-18T15:31:31;18.35;;;14.15;;
42110;SDS011;27766;52.174;5.456;2022-11-18T15:33:58;18.77;;;14.13;;
42110;SDS011;27766;52.174;5.456;2022-11-18T15:36:32;16.67;;;12.80;;
42110;SDS011;27766;52.174;5.456;2022-11-18T15:38:59;16.92;;;11.57;;
42110;SDS011;27766;52.174;5.456;2022-11-18T15:41:27;17.50;;;10.40;;
42110;SDS011;27766;52.174;5.456;2022-11-18T15:43:56;14.13;;;9.10;;
42110;SDS011;27766;52.174;5.456;2022-11-18T15:46:25;14.52;;;9.20;;
42110;SDS011;27766;52.174;5.456;2022-11-18T15:48:53;15.82;;;8.73;;
42110;SDS011;27766;52.174;5.456;2022-11-18T15:51:23;10.68;;;8.00;;
42110;SDS011;27766;52.174;5.456;2022-11-18T15:53:51;12.45;;;7.72;;
42110;SDS011;27766;52.174;5.456;2022-11-18T15:58:53;15.35;;;11.55;;
42110;SDS011;27766;52.174;5.456;2022-11-18T16:01:23;17.83;;;11.45;;
42110;SDS011;27766;52.174;5.456;2022-11-18T16:03:52;14.43;;;11.50;;
42110;SDS011;27766;52.174;5.456;2022-11-18T16:06:20;14.18;;;11.57;;
42110;SDS011;27766;52.174;5.456;2022-11-18T16:08:48;19.23;;;13.60;;
42110;SDS011;27766;52.174;5.456;2022-11-18T16:11:21;17.75;;;12.95;;
42110;SDS011;27766;52.174;5.456;2022-11-18T16:14:07;22.05;;;13.70;;
42110;SDS011;27766;52.174;5.456;2022-11-18T16:16:37;15.80;;;13.32;;
42110;SDS011;27766;52.174;5.456;2022-11-18T16:19:06;23.25;;;15.02;;
42110;SDS011;27766;52.174;5.456;2022-11-18T16:21:35;17.92;;;13.07;;
42110;SDS011;27766;52.174;5.456;2022-11-18T16:24:06;15.13;;;10.95;;
42110;SDS011;27766;52.174;5.456;2022-11-18T16:26:34;16.70;;;10.68;;
42110;SDS011;27766;52.174;5.456;2022-11-18T16:29:05;15.68;;;10.07;;
42110;SDS011;27766;52.174;5.456;2022-11-18T16:31:33;13.95;;;10.07;;
42110;SDS011;27766;52.174;5.456;2022-11-18T16:34:07;16.15;;;11.13;;
42110;SDS011;27766;52.174;5.456;2022-11-18T16:36:37;16.88;;;12.63;;
42110;SDS011;27766;52.174;5.456;2022-11-18T16:39:14;25.23;;;19.02;;
42110;SDS011;27766;52.174;5.456;2022-11-18T16:41:45;26.98;;;19.98;;
42110;SDS011;27766;52.174;5.456;2022-11-18T16:44:14;28.17;;;19.33;;
42110;SDS011;27766;52.174;5.456;2022-11-18T16:46:44;25.88;;;18.77;;
42110;SDS011;27766;52.174;5.456;2022-11-18T16:49:15;29.38;;;18.83;;
42110;SDS011;27766;52.174;5.456;2022-11-18T16:51:46;25.48;;;17.45;;
42110;SDS011;27766;52.174;5.456;2022-11-18T16:54:17;24.55;;;19.05;;